createdAt,value
2022-12-25T00:01:22.485Z,95451.25
2022-12-25T00:03:50.434Z,95453.94
2022-12-25T00:06:17.371Z,95451.28
2022-12-25T00:08:44.566Z,95456.31
2022-12-25T00:11:15.539Z,95454.59
2022-12-25T00:13:42.624Z,95456.47
2022-12-25T00:16:15.409Z,95457.28
2022-12-25T00:18:42.399Z,95466.41
2022-12-25T00:21:10.951Z,95473.28
2022-12-25T00:23:38.145Z,95478.91
2022-12-25T00:26:13.411Z,95474.91
2022-12-25T00:28:40.273Z,95475.28
2022-12-25T00:31:12.403Z,95478.47
2022-12-25T00:33:41.453Z,95486.31
2022-12-25T00:36:09.471Z,95485.44
2022-12-25T00:38:37.994Z,95485.69
2022-12-25T00:41:06.802Z,95481.25
2022-12-25T00:43:33.660Z,95486.91
2022-12-25T00:46:03.091Z,95480.75
2022-12-25T00:48:30.695Z,95491.25
2022-12-25T00:50:59.972Z,95494.19
2022-12-25T00:53:27.940Z,95492.94
2022-12-25T00:55:57.168Z,95493.50
2022-12-25T00:58:25.007Z,95494.66
2022-12-25T01:00:52.213Z,95494.00
2022-12-25T01:03:19.201Z,95482.84
2022-12-25T01:05:55.873Z,95484.84
2022-12-25T01:08:22.673Z,95487.09
2022-12-25T01:11:00.669Z,95492.28
2022-12-25T01:13:28.801Z,95488.25
2022-12-25T01:15:55.627Z,95484.25
2022-12-25T01:18:24.045Z,95490.81
2022-12-25T01:20:51.657Z,95475.53
2022-12-25T01:23:18.683Z,95482.81
2022-12-25T01:25:45.650Z,95489.16
2022-12-25T01:28:12.732Z,95483.78
2022-12-25T01:30:39.949Z,95483.91
2022-12-25T01:33:07.111Z,95486.75
2022-12-25T01:35:33.867Z,95482.94
2022-12-25T01:38:00.843Z,95480.94
2022-12-25T01:40:27.493Z,95482.25
2022-12-25T01:42:54.369Z,95487.88
2022-12-25T01:45:44.436Z,95488.16
2022-12-25T01:48:19.043Z,95474.63
2022-12-25T01:50:51.194Z,95481.53
2022-12-25T01:53:18.094Z,95484.88
2022-12-25T01:55:48.303Z,95487.03
2022-12-25T01:58:16.231Z,95490.66
2022-12-25T02:00:43.495Z,95487.53
2022-12-25T02:03:29.527Z,95488.25
2022-12-25T02:05:58.690Z,95489.44
2022-12-25T02:08:26.029Z,95493.13
2022-12-25T02:10:52.728Z,95491.06
2022-12-25T02:13:20.465Z,95496.09
2022-12-25T02:16:16.679Z,95494.00
2022-12-25T02:18:50.119Z,95485.81
2022-12-25T02:21:20.038Z,95485.34
2022-12-25T02:24:24.078Z,95484.91
2022-12-25T02:27:11.180Z,95491.19
2022-12-25T02:29:59.273Z,95478.75
2022-12-25T02:32:32.994Z,95486.50
2022-12-25T02:35:02.855Z,95486.47
2022-12-25T02:37:33.094Z,95486.16
2022-12-25T02:40:24.549Z,95486.03
2022-12-25T02:43:16.951Z,95492.03
2022-12-25T02:46:26.262Z,95496.09
2022-12-25T02:49:19.823Z,95495.16
2022-12-25T02:52:17.409Z,95496.72
2022-12-25T02:55:09.126Z,95498.75
2022-12-25T02:57:59.830Z,95497.59
2022-12-25T03:00:45.359Z,95505.19
2022-12-25T03:03:33.530Z,95500.63
2022-12-25T03:06:22.500Z,95501.06
2022-12-25T03:08:53.645Z,95518.19
2022-12-25T03:11:32.758Z,95515.00
2022-12-25T03:14:23.934Z,95524.38
2022-12-25T03:16:55.925Z,95525.47
2022-12-25T03:19:46.901Z,95529.84
2022-12-25T03:22:37.796Z,95535.09
2022-12-25T03:25:23.704Z,95538.88
2022-12-25T03:27:54.624Z,95540.66
2022-12-25T03:30:42.196Z,95534.63
2022-12-25T03:33:43.730Z,95532.47
2022-12-25T03:36:39.240Z,95543.19
2022-12-25T03:39:41.429Z,95536.22
2022-12-25T03:42:28.116Z,95539.78
2022-12-25T03:45:27.272Z,95543.78
2022-12-25T03:48:09.034Z,95545.34
2022-12-25T03:51:26.638Z,95549.09
2022-12-25T03:54:16.208Z,95555.38
2022-12-25T03:57:02.778Z,95553.28
2022-12-25T03:59:48.310Z,95568.94
2022-12-25T04:02:34.046Z,95547.13
2022-12-25T04:05:19.740Z,95555.22
2022-12-25T04:08:05.067Z,95568.47
2022-12-25T04:10:50.570Z,95566.69
2022-12-25T04:13:35.887Z,95567.47
2022-12-25T04:16:21.222Z,95572.03
2022-12-25T04:19:06.965Z,95578.16
2022-12-25T04:21:52.391Z,95585.44
2022-12-25T04:24:37.953Z,95579.50
2022-12-25T04:27:23.361Z,95583.25
2022-12-25T04:30:08.768Z,95588.25
2022-12-25T04:32:54.151Z,95590.53
2022-12-25T04:35:39.540Z,95593.63
2022-12-25T04:38:06.457Z,95592.50
2022-12-25T04:40:33.249Z,95588.53
2022-12-25T04:43:00.034Z,95587.06
2022-12-25T04:45:26.878Z,95594.78
2022-12-25T04:47:53.755Z,95597.28
2022-12-25T04:50:20.581Z,95598.50
2022-12-25T04:52:47.244Z,95606.22
2022-12-25T04:55:14.122Z,95612.25
2022-12-25T04:57:40.908Z,95606.03
2022-12-25T05:00:08.230Z,95618.94
2022-12-25T05:02:35.230Z,95617.47
2022-12-25T05:05:02.391Z,95607.94
2022-12-25T05:07:29.204Z,95619.25
2022-12-25T05:09:57.399Z,95619.66
2022-12-25T05:12:24.278Z,95606.53
2022-12-25T05:14:51.041Z,95609.63
2022-12-25T05:17:18.049Z,95608.28
2022-12-25T05:19:44.889Z,95619.53
2022-12-25T05:22:11.640Z,95611.34
2022-12-25T05:24:38.474Z,95617.13
2022-12-25T05:27:05.234Z,95619.78
2022-12-25T05:29:31.940Z,95617.16
2022-12-25T05:31:58.963Z,95621.59
2022-12-25T05:34:25.894Z,95625.69
2022-12-25T05:36:52.818Z,95630.00
2022-12-25T05:39:19.820Z,95625.22
2022-12-25T05:41:46.597Z,95630.69
2022-12-25T05:44:13.266Z,95627.97
2022-12-25T05:46:40.268Z,95621.59
2022-12-25T05:49:07.005Z,95630.53
2022-12-25T05:51:33.855Z,95628.28
2022-12-25T05:54:00.725Z,95631.94
2022-12-25T05:56:28.319Z,95643.53
2022-12-25T05:58:55.219Z,95634.53
2022-12-25T06:01:25.025Z,95636.13
2022-12-25T06:03:52.283Z,95637.84
2022-12-25T06:06:19.560Z,95652.84
2022-12-25T06:08:46.552Z,95652.75
2022-12-25T06:11:15.172Z,95654.34
2022-12-25T06:13:43.528Z,95660.00
2022-12-25T06:16:12.034Z,95653.97
2022-12-25T06:18:45.343Z,95672.50
2022-12-25T06:21:13.948Z,95674.56
2022-12-25T06:23:41.739Z,95680.25
2022-12-25T06:26:15.220Z,95681.84
2022-12-25T06:28:42.231Z,95683.88
2022-12-25T06:31:11.975Z,95686.84
2022-12-25T06:33:39.192Z,95684.13
2022-12-25T06:36:15.183Z,95686.59
2022-12-25T06:38:42.099Z,95684.75
2022-12-25T06:41:14.980Z,95686.31
2022-12-25T06:43:41.672Z,95689.31
2022-12-25T06:46:11.807Z,95692.03
2022-12-25T06:48:40.458Z,95703.72
2022-12-25T06:51:07.840Z,95700.22
2022-12-25T06:53:40.237Z,95710.53
2022-12-25T06:56:16.311Z,95702.91
2022-12-25T06:58:45.495Z,95716.47
2022-12-25T07:01:25.132Z,95717.22
2022-12-25T07:03:55.974Z,95723.38
2022-12-25T07:06:22.967Z,95729.41
2022-12-25T07:08:50.073Z,95729.88
2022-12-25T07:11:16.886Z,95740.81
2022-12-25T07:13:43.755Z,95739.34
2022-12-25T07:16:12.658Z,95740.75
2022-12-25T07:18:40.719Z,95727.69
2022-12-25T07:21:16.424Z,95735.13
2022-12-25T07:23:44.345Z,95733.84
2022-12-25T07:26:12.380Z,95739.91
2022-12-25T07:28:39.435Z,95734.56
2022-12-25T07:31:14.937Z,95744.56
2022-12-25T07:33:42.541Z,95755.03
2022-12-25T07:36:13.556Z,95746.03
2022-12-25T07:38:43.684Z,95753.59
2022-12-25T07:41:12.868Z,95751.06
2022-12-25T07:43:39.788Z,95756.66
2022-12-25T07:46:08.874Z,95761.19
2022-12-25T07:48:36.455Z,95760.84
2022-12-25T07:51:05.981Z,95761.81
2022-12-25T07:53:34.283Z,95768.06
2022-12-25T07:56:06.904Z,95763.03
2022-12-25T07:58:34.187Z,95775.66
2022-12-25T08:01:07.256Z,95772.25
2022-12-25T08:03:35.351Z,95775.38
2022-12-25T08:06:06.989Z,95781.72
2022-12-25T08:08:34.850Z,95784.59
2022-12-25T08:11:01.916Z,95786.97
2022-12-25T08:13:32.889Z,95790.31
2022-12-25T08:16:07.954Z,95793.00
2022-12-25T08:18:37.120Z,95789.19
2022-12-25T08:21:06.282Z,95793.31
2022-12-25T08:23:38.554Z,95788.09
2022-12-25T08:26:08.581Z,95778.50
2022-12-25T08:28:36.009Z,95778.38
2022-12-25T08:31:16.272Z,95775.19
2022-12-25T08:33:43.255Z,95772.84
2022-12-25T08:36:11.873Z,95767.78
2022-12-25T08:38:39.308Z,95762.69
2022-12-25T08:41:06.603Z,95763.44
2022-12-25T08:43:33.331Z,95773.66
2022-12-25T08:46:00.337Z,95764.38
2022-12-25T08:48:28.026Z,95778.66
2022-12-25T08:50:55.113Z,95777.88
2022-12-25T08:53:22.917Z,95776.91
2022-12-25T08:55:49.887Z,95776.56
2022-12-25T08:58:16.851Z,95777.44
2022-12-25T09:00:43.766Z,95782.06
2022-12-25T09:03:10.640Z,95780.91
2022-12-25T09:05:37.929Z,95785.28
2022-12-25T09:08:05.144Z,95784.56
2022-12-25T09:10:34.902Z,95785.78
2022-12-25T09:13:01.813Z,95787.97
2022-12-25T09:15:28.581Z,95791.44
2022-12-25T09:17:55.479Z,95786.31
2022-12-25T09:20:22.355Z,95795.75
2022-12-25T09:22:49.289Z,95777.31
2022-12-25T09:25:16.147Z,95782.19
2022-12-25T09:27:43.701Z,95781.16
2022-12-25T09:30:13.982Z,95784.88
2022-12-25T09:32:40.796Z,95785.06
2022-12-25T09:35:08.469Z,95784.38
2022-12-25T09:37:36.046Z,95785.38
2022-12-25T09:40:03.271Z,95788.00
2022-12-25T09:42:32.504Z,95792.31
2022-12-25T09:45:02.946Z,95779.41
2022-12-25T09:47:34.031Z,95783.34
2022-12-25T09:50:07.048Z,95800.25
2022-12-25T09:52:36.997Z,95783.06
2022-12-25T09:55:14.807Z,95784.88
2022-12-25T09:57:46.968Z,95768.28
2022-12-25T10:00:20.515Z,95764.34
2022-12-25T10:02:47.508Z,95769.59
2022-12-25T10:05:20.918Z,95771.72
2022-12-25T10:08:04.707Z,95772.75
2022-12-25T10:10:49.903Z,95769.53
2022-12-25T10:13:34.849Z,95768.06
2022-12-25T10:16:20.255Z,95760.09
2022-12-25T10:19:02.552Z,95761.69
2022-12-25T10:21:30.789Z,95757.91
2022-12-25T10:24:14.938Z,95756.09
2022-12-25T10:26:44.643Z,95759.34
2022-12-25T10:29:17.127Z,95761.66
2022-12-25T10:31:49.243Z,95770.16
2022-12-25T10:34:18.174Z,95757.97
2022-12-25T10:36:46.988Z,95753.78
2022-12-25T10:39:17.966Z,95755.34
2022-12-25T10:42:00.215Z,95761.97
2022-12-25T10:44:27.000Z,95768.81
2022-12-25T10:46:59.186Z,95754.78
2022-12-25T10:49:31.965Z,95757.22
2022-12-25T10:52:00.204Z,95761.69
2022-12-25T10:54:33.548Z,95768.03
2022-12-25T10:57:03.479Z,95767.25
2022-12-25T10:59:35.824Z,95768.03
2022-12-25T11:02:13.363Z,95759.56
2022-12-25T11:04:40.408Z,95745.56
2022-12-25T11:07:20.063Z,95739.47
2022-12-25T11:10:05.077Z,95746.59
2022-12-25T11:12:44.577Z,95746.91
2022-12-25T11:15:42.828Z,95754.28
2022-12-25T11:18:23.211Z,95755.88
2022-12-25T11:20:59.244Z,95741.59
2022-12-25T11:23:28.688Z,95751.13
2022-12-25T11:26:08.330Z,95752.94
2022-12-25T11:28:38.610Z,95749.81
2022-12-25T11:31:19.733Z,95750.03
2022-12-25T11:33:52.369Z,95754.81
2022-12-25T11:36:46.400Z,95745.00
2022-12-25T11:39:24.170Z,95742.94
2022-12-25T11:41:59.286Z,95749.56
2022-12-25T11:44:30.847Z,95761.16
2022-12-25T11:47:08.513Z,95749.53
2022-12-25T11:49:50.272Z,95737.34
2022-12-25T11:52:20.148Z,95752.47
2022-12-25T11:55:01.360Z,95747.81
2022-12-25T11:57:31.238Z,95746.06
2022-12-25T12:00:10.401Z,95735.94
2022-12-25T12:02:46.113Z,95738.59
2022-12-25T12:05:25.513Z,95744.22
2022-12-25T12:07:55.032Z,95740.97
2022-12-25T12:10:29.591Z,95730.00
2022-12-25T12:13:41.949Z,95723.38
2022-12-25T12:16:09.434Z,95727.16
2022-12-25T12:18:36.554Z,95727.94
2022-12-25T12:21:23.993Z,95725.44
2022-12-25T12:24:02.282Z,95725.72
2022-12-25T12:26:34.716Z,95733.25
2022-12-25T12:29:04.173Z,95729.66
2022-12-25T12:31:43.624Z,95733.63
2022-12-25T12:34:26.151Z,95738.22
2022-12-25T12:37:05.095Z,95736.94
2022-12-25T12:39:36.915Z,95729.16
2022-12-25T12:42:18.013Z,95735.97
2022-12-25T12:44:46.297Z,95746.13
2022-12-25T12:47:44.770Z,95743.84
2022-12-25T12:50:32.776Z,95730.59
2022-12-25T12:53:00.814Z,95740.81
2022-12-25T12:55:33.201Z,95738.03
2022-12-25T12:58:05.622Z,95744.84
2022-12-25T13:00:52.425Z,95740.31
2022-12-25T13:03:50.593Z,95745.19
2022-12-25T13:06:46.186Z,95743.28
2022-12-25T13:09:34.200Z,95739.56
2022-12-25T13:12:07.157Z,95738.06
2022-12-25T13:14:35.658Z,95736.47
2022-12-25T13:17:07.755Z,95748.06
2022-12-25T13:19:37.015Z,95746.03
2022-12-25T13:22:07.292Z,95741.00
2022-12-25T13:24:36.673Z,95751.53
2022-12-25T13:27:23.871Z,95754.06
2022-12-25T13:29:51.126Z,95760.72
2022-12-25T13:32:26.456Z,95757.94
2022-12-25T13:34:54.226Z,95764.88
2022-12-25T13:37:24.183Z,95773.84
2022-12-25T13:39:54.756Z,95762.19
2022-12-25T13:42:25.458Z,95773.00
2022-12-25T13:44:57.873Z,95771.16
2022-12-25T13:47:33.746Z,95780.59
2022-12-25T13:50:22.511Z,95789.56
2022-12-25T13:52:50.360Z,95779.50
2022-12-25T13:55:23.585Z,95787.31
2022-12-25T13:58:01.029Z,95781.50
2022-12-25T14:00:38.150Z,95788.06
2022-12-25T14:03:07.593Z,95802.47
2022-12-25T14:05:42.377Z,95789.41
2022-12-25T14:08:16.125Z,95784.75
2022-12-25T14:10:49.671Z,95798.19
2022-12-25T14:13:19.824Z,95801.13
2022-12-25T14:15:50.523Z,95791.25
2022-12-25T14:18:21.319Z,95789.28
2022-12-25T14:21:01.899Z,95800.19
2022-12-25T14:23:43.746Z,95788.88
2022-12-25T14:26:31.985Z,95788.75
2022-12-25T14:29:04.818Z,95788.47
2022-12-25T14:31:32.715Z,95787.00
2022-12-25T14:34:03.376Z,95782.00
2022-12-25T14:36:38.084Z,95796.66
2022-12-25T14:39:07.807Z,95791.50
2022-12-25T14:41:41.818Z,95794.50
2022-12-25T14:44:36.107Z,95798.19
2022-12-25T14:47:13.271Z,95801.94
2022-12-25T14:49:40.328Z,95804.81
2022-12-25T14:52:13.758Z,95803.63
2022-12-25T14:54:45.856Z,95809.28
2022-12-25T14:57:25.834Z,95799.03
2022-12-25T15:00:08.079Z,95815.75
2022-12-25T15:02:43.001Z,95817.38
2022-12-25T15:05:37.211Z,95818.19
2022-12-25T15:08:19.703Z,95811.97
2022-12-25T15:11:03.438Z,95814.50
2022-12-25T15:13:31.590Z,95806.63
2022-12-25T15:16:01.326Z,95819.91
2022-12-25T15:18:34.275Z,95826.38
2022-12-25T15:21:02.320Z,95821.06
2022-12-25T15:23:29.233Z,95829.16
2022-12-25T15:25:56.003Z,95836.19
2022-12-25T15:28:23.061Z,95835.16
2022-12-25T15:30:50.050Z,95831.09
2022-12-25T15:33:18.978Z,95833.75
2022-12-25T15:35:46.156Z,95829.34
2022-12-25T15:38:13.627Z,95832.41
2022-12-25T15:40:41.450Z,95835.63
2022-12-25T15:43:31.222Z,95830.53
2022-12-25T15:46:00.580Z,95841.97
2022-12-25T15:48:27.340Z,95850.00
2022-12-25T15:50:54.313Z,95841.50
2022-12-25T15:53:21.120Z,95844.81
2022-12-25T15:55:47.952Z,95847.19
2022-12-25T15:58:15.351Z,95852.22
2022-12-25T16:00:42.159Z,95849.63
2022-12-25T16:03:09.250Z,95863.22
2022-12-25T16:05:36.142Z,95856.59
2022-12-25T16:08:02.910Z,95862.97
2022-12-25T16:10:34.882Z,95857.22
2022-12-25T16:13:05.263Z,95859.16
2022-12-25T16:15:32.236Z,95858.91
2022-12-25T16:17:59.004Z,95859.63
2022-12-25T16:20:25.874Z,95862.63
2022-12-25T16:22:52.751Z,95864.44
2022-12-25T16:25:20.008Z,95863.00
2022-12-25T16:27:47.415Z,95865.66
2022-12-25T16:30:35.776Z,95863.13
2022-12-25T16:33:02.784Z,95866.47
2022-12-25T16:35:30.530Z,95862.03
2022-12-25T16:37:57.523Z,95861.00
2022-12-25T16:40:24.969Z,95863.34
2022-12-25T16:42:51.749Z,95864.63
2022-12-25T16:45:19.583Z,95854.84
2022-12-25T16:47:46.527Z,95876.16
2022-12-25T16:50:13.823Z,95891.25
2022-12-25T16:52:40.552Z,95899.38
2022-12-25T16:55:08.777Z,95892.13
2022-12-25T16:57:35.863Z,95897.44
2022-12-25T17:00:02.754Z,95900.53
2022-12-25T17:02:29.823Z,95893.56
2022-12-25T17:04:57.157Z,95903.38
2022-12-25T17:07:23.961Z,95923.22
2022-12-25T17:09:50.984Z,95919.53
2022-12-25T17:12:17.806Z,95915.41
2022-12-25T17:14:44.649Z,95925.41
2022-12-25T17:17:11.458Z,95920.81
2022-12-25T17:19:38.874Z,95920.38
2022-12-25T17:22:06.733Z,95925.28
2022-12-25T17:24:36.281Z,95922.81
2022-12-25T17:27:03.825Z,95921.06
2022-12-25T17:29:32.043Z,95922.59
2022-12-25T17:31:58.927Z,95929.53
2022-12-25T17:34:25.713Z,95930.38
2022-12-25T17:36:54.446Z,95931.16
2022-12-25T17:39:21.149Z,95931.59
2022-12-25T17:41:50.597Z,95934.91
2022-12-25T17:44:18.788Z,95941.47
2022-12-25T17:46:45.598Z,95936.84
2022-12-25T17:49:18.369Z,95949.50
2022-12-25T17:51:45.722Z,95943.41
2022-12-25T17:54:12.948Z,95932.22
2022-12-25T17:56:39.914Z,95947.13
2022-12-25T17:59:08.543Z,95945.66
2022-12-25T18:01:38.422Z,95952.00
2022-12-25T18:04:06.760Z,95946.75
2022-12-25T18:06:35.602Z,95947.22
2022-12-25T18:09:02.567Z,95949.50
2022-12-25T18:11:33.713Z,95951.41
2022-12-25T18:14:06.626Z,95953.47
2022-12-25T18:16:37.207Z,95948.03
2022-12-25T18:19:04.352Z,95953.47
2022-12-25T18:21:32.334Z,95953.31
2022-12-25T18:23:59.269Z,95940.72
2022-12-25T18:26:28.669Z,95950.75
2022-12-25T18:28:56.045Z,95949.25
2022-12-25T18:31:25.894Z,95959.88
2022-12-25T18:33:54.138Z,95953.22
2022-12-25T18:36:24.538Z,95957.31
2022-12-25T18:38:53.552Z,95958.56
2022-12-25T18:41:21.527Z,95957.38
2022-12-25T18:43:52.497Z,95961.06
2022-12-25T18:46:26.830Z,95959.00
2022-12-25T18:48:57.625Z,95956.19
2022-12-25T18:51:24.901Z,95962.88
2022-12-25T18:53:51.855Z,95956.81
2022-12-25T18:56:19.956Z,95962.25
2022-12-25T18:58:47.099Z,95957.63
2022-12-25T19:01:20.264Z,95958.34
2022-12-25T19:03:49.153Z,95961.13
2022-12-25T19:06:22.818Z,95962.25
2022-12-25T19:08:49.726Z,95961.13
2022-12-25T19:11:17.327Z,95959.38
2022-12-25T19:13:45.145Z,95966.53
2022-12-25T19:16:12.478Z,95965.19
2022-12-25T19:18:40.061Z,95978.16
2022-12-25T19:21:09.469Z,95971.84
2022-12-25T19:23:38.130Z,95972.47
2022-12-25T19:26:05.967Z,95973.13
2022-12-25T19:28:32.776Z,95969.41
2022-12-25T19:31:00.860Z,95975.88
2022-12-25T19:33:28.257Z,95983.56
2022-12-25T19:36:02.891Z,95998.19
2022-12-25T19:38:30.195Z,95990.78
2022-12-25T19:41:03.025Z,95991.34
2022-12-25T19:43:32.003Z,95988.84
2022-12-25T19:45:59.410Z,95985.88
2022-12-25T19:48:26.328Z,95994.31
2022-12-25T19:50:53.359Z,96006.97
2022-12-25T19:53:23.460Z,95999.09
2022-12-25T19:55:52.677Z,95994.31
2022-12-25T19:58:20.736Z,95990.09
2022-12-25T20:01:08.078Z,95977.22
2022-12-25T20:03:41.858Z,95979.00
2022-12-25T20:06:19.886Z,95974.69
2022-12-25T20:08:47.674Z,95978.41
2022-12-25T20:11:14.910Z,95981.59
2022-12-25T20:13:41.561Z,95974.06
2022-12-25T20:16:10.138Z,95976.78
2022-12-25T20:18:39.489Z,95972.28
2022-12-25T20:21:10.403Z,95966.59
2022-12-25T20:23:37.486Z,95979.56
2022-12-25T20:26:05.513Z,95979.19
2022-12-25T20:28:34.479Z,95977.00
2022-12-25T20:31:19.200Z,95982.63
2022-12-25T20:33:46.440Z,95974.47
2022-12-25T20:36:13.379Z,95982.09
2022-12-25T20:38:40.986Z,95986.63
2022-12-25T20:41:30.210Z,95988.94
2022-12-25T20:43:57.659Z,95987.03
2022-12-25T20:46:25.371Z,95988.78
2022-12-25T20:48:52.968Z,95987.03
2022-12-25T20:51:23.081Z,95994.47
2022-12-25T20:53:50.542Z,95994.47
2022-12-25T20:56:19.391Z,95996.06
2022-12-25T20:58:46.229Z,96005.09
2022-12-25T21:01:17.189Z,96001.31
2022-12-25T21:03:44.949Z,96013.34
2022-12-25T21:06:12.859Z,96012.06
2022-12-25T21:08:41.181Z,96009.00
2022-12-25T21:11:09.151Z,96013.66
2022-12-25T21:13:42.965Z,96018.78
2022-12-25T21:16:12.352Z,96009.91
2022-12-25T21:18:39.267Z,96016.81
2022-12-25T21:21:07.760Z,96019.84
2022-12-25T21:23:37.105Z,96024.06
2022-12-25T21:26:20.963Z,96017.94
2022-12-25T21:28:49.729Z,96012.72
2022-12-25T21:31:17.517Z,96017.28
2022-12-25T21:33:54.442Z,96019.44
2022-12-25T21:36:41.322Z,96022.75
2022-12-25T21:39:08.689Z,96014.19
2022-12-25T21:41:37.887Z,96016.19
2022-12-25T21:44:05.538Z,96016.44
2022-12-25T21:46:32.537Z,96025.53
2022-12-25T21:48:59.740Z,96003.69
2022-12-25T21:51:48.599Z,96015.09
2022-12-25T21:54:16.215Z,96018.09
2022-12-25T21:56:45.592Z,96008.53
2022-12-25T21:59:18.517Z,96006.03
2022-12-25T22:01:47.302Z,96007.19
2022-12-25T22:04:15.897Z,96008.53
2022-12-25T22:07:01.789Z,96014.97
2022-12-25T22:09:28.979Z,96011.00
2022-12-25T22:12:15.998Z,96013.94
2022-12-25T22:14:56.247Z,96009.09
2022-12-25T22:17:45.717Z,96000.50
2022-12-25T22:20:15.999Z,95994.00
2022-12-25T22:22:43.109Z,96007.28
2022-12-25T22:25:12.658Z,96004.09
2022-12-25T22:27:41.145Z,96006.69
2022-12-25T22:30:13.739Z,96009.22
2022-12-25T22:32:40.617Z,96009.38
2022-12-25T22:35:08.235Z,96008.94
2022-12-25T22:37:36.170Z,96012.47
2022-12-25T22:40:04.373Z,96015.59
2022-12-25T22:42:31.091Z,96006.28
2022-12-25T22:44:58.000Z,96003.59
2022-12-25T22:47:24.949Z,96001.06
2022-12-25T22:49:52.649Z,96013.34
2022-12-25T22:52:19.395Z,96013.16
2022-12-25T22:54:46.157Z,96011.97
2022-12-25T22:57:13.054Z,96014.03
2022-12-25T22:59:39.951Z,96011.50
2022-12-25T23:02:06.898Z,96025.28
2022-12-25T23:04:33.827Z,96006.41
2022-12-25T23:07:00.552Z,96019.66
2022-12-25T23:09:28.074Z,96026.94
2022-12-25T23:11:57.051Z,96021.53
2022-12-25T23:14:40.734Z,96026.34
2022-12-25T23:17:31.725Z,96029.75
2022-12-25T23:20:19.212Z,96023.22
2022-12-25T23:23:05.678Z,96018.56
2022-12-25T23:25:53.780Z,96012.16
2022-12-25T23:28:41.013Z,96012.44
2022-12-25T23:31:07.997Z,96015.03
2022-12-25T23:33:35.069Z,96019.50
2022-12-25T23:36:02.081Z,96017.47
2022-12-25T23:38:28.974Z,96026.13
2022-12-25T23:40:55.749Z,96023.50
2022-12-25T23:43:22.787Z,96029.91
2022-12-25T23:45:49.746Z,96034.31
2022-12-25T23:48:16.488Z,96040.72
2022-12-25T23:50:43.225Z,96038.34
2022-12-25T23:53:11.136Z,96036.31
2022-12-25T23:55:37.989Z,96047.16
2022-12-25T23:58:05.037Z,96036.91
